Terminal Aerodrome Forecast
Issued by NWS Binghamton, NY

Home | Current Version | Previous Version | Text Only | Print | Product List | Glossary On
Versions: 1 2 3 4 5 6 7 8 9 10 11 12 13 14 15 16 17 18 19 20 21
000
FTUS41 KBGM 022100 AAB
TAFSYR
TAF AMD
KSYR 022111Z 0221/0318 29010KT P6SM -SHRA BKN040
      TEMPO 0222/0223 32014G22KT 3SM TSRA BR OVC025CB
     FM030100 31010KT P6SM SCT025 BKN070
     FM030300 27005KT P6SM BKN025
     FM030600 27005KT P6SM FEW025 SCT040
     FM031300 29008KT P6SM SCT035=

USA.gov is the U.S. government's official web portal to all federal, state and local government web resources and services.